Time;durP1;ratioP1;P1;durP2;ratioP2;P2;SDS_P1;SDS_P2;PMS_P1;PMS_P2;Temp;Humidity;BMP_temperature;BMP_pressure;BME280_temperature;BME280_humidity;BME280_pressure;Samples;Min_cycle;Max_cycle;Signal;HPM_P1;HPM_P2
2023/10/09 00:01:17;;;;;;;16.37;6.57;;;18.00;47.60;;;;;;20468;6823;280812;-80
2023/10/09 00:03:42;;;;;;;17.25;6.00;;;18.30;47.00;;;;;;20476;6823;307867;-78
2023/10/09 00:06:08;;;;;;;13.63;6.27;;;18.30;46.90;;;;;;20477;6823;307061;-81
2023/10/09 00:08:37;;;;;;;14.53;6.20;;;18.40;46.60;;;;;;20690;6824;117794;-78
2023/10/09 00:11:13;;;;;;;14.15;6.30;;;18.10;46.70;;;;;;20459;6824;315303;-81
2023/10/09 00:13:31;;;;;;;15.60;5.50;;;18.10;46.90;;;;;;20654;6824;118015;-79
2023/10/09 00:15:59;;;;;;;13.27;6.37;;;17.90;46.90;;;;;;20469;6824;286967;-77
2023/10/09 00:18:28;;;;;;;18.03;7.10;;;17.90;47.10;;;;;;20464;6824;286643;-80
2023/10/09 00:20:54;;;;;;;13.50;6.50;;;18.00;46.70;;;;;;20464;6824;315367;-81
2023/10/09 00:23:15;;;;;;;18.03;6.20;;;17.90;46.50;;;;;;20664;6824;117726;-80
2023/10/09 00:25:46;;;;;;;15.17;6.40;;;17.90;46.50;;;;;;20489;6824;314840;-77
2023/10/09 00:28:18;;;;;;;18.02;6.78;;;17.80;46.60;;;;;;20473;6824;278037;-77
2023/10/09 00:30:30;;;;;;;13.47;5.90;;;17.90;46.40;;;;;;20661;6824;118277;-79
2023/10/09 00:33:01;;;;;;;13.02;6.50;;;17.70;46.50;;;;;;20483;6824;336047;-76
2023/10/09 00:40:57;;;;;;;14.33;6.00;;;17.40;46.90;;;;;;20700;6824;117665;-76
2023/10/09 00:43:13;;;;;;;11.60;5.13;;;17.40;46.90;;;;;;20562;6839;118457;-78
2023/10/09 00:45:40;;;;;;;17.37;6.07;;;17.10;47.20;;;;;;20600;6854;118216;-78
2023/10/09 00:48:04;;;;;;;17.20;6.75;;;16.90;47.60;;;;;;20439;6839;283404;-82
2023/10/09 00:50:35;;;;;;;17.87;7.07;;;17.10;47.80;;;;;;20433;6839;307441;-77
2023/10/09 00:53:09;;;;;;;18.37;6.23;;;17.40;47.30;;;;;;20625;6839;118558;-78
2023/10/09 00:58:11;;;;;;;19.17;5.47;;;17.40;47.10;;;;;;20675;6839;117368;-81
2023/10/09 01:00:52;;;;;;;16.37;5.12;;;17.30;47.00;;;;;;20606;6839;117093;-79
2023/10/09 01:03:20;;;;;;;18.00;6.30;;;17.10;47.30;;;;;;20274;6839;316911;-78
2023/10/09 01:05:28;;;;;;;13.93;5.93;;;17.20;47.20;;;;;;20290;6839;336843;-77
2023/10/09 01:07:58;;;;;;;18.25;6.47;;;17.50;46.70;;;;;;20424;6839;307295;-80
2023/10/09 01:10:20;;;;;;;18.33;5.90;;;17.80;46.20;;;;;;20618;6837;118652;-77
2023/10/09 01:12:47;;;;;;;13.95;6.30;;;17.60;46.20;;;;;;20423;6838;291571;-78
2023/10/09 01:15:35;;;;;;;16.00;6.72;;;17.60;46.40;;;;;;20414;6838;307708;-78
2023/10/09 01:17:45;;;;;;;17.13;6.77;;;17.80;46.30;;;;;;20387;6838;277877;-76
2023/10/09 01:20:16;;;;;;;12.68;5.80;;;17.80;46.00;;;;;;20651;6838;117649;-76
2023/10/09 01:22:32;;;;;;;14.27;5.60;;;17.40;46.40;;;;;;20604;6838;117130;-76
2023/10/09 01:24:58;;;;;;;15.13;5.30;;;17.40;46.40;;;;;;20620;6838;117710;-76
2023/10/09 01:27:32;;;;;;;15.10;5.40;;;17.10;46.80;;;;;;20636;6838;117412;-81
2023/10/09 01:29:50;;;;;;;17.30;6.47;;;16.90;47.20;;;;;;20407;6839;308342;-76
2023/10/09 01:32:19;;;;;;;16.42;5.82;;;17.00;47.50;;;;;;20633;6839;117727;-76
2023/10/09 01:34:44;;;;;;;16.80;5.90;;;17.00;47.40;;;;;;20631;6839;118054;-76
2023/10/09 01:42:49;;;;;;;13.60;6.07;;;16.80;48.30;;;;;;20617;6839;117281;-81
2023/10/09 01:47:52;;;;;;;13.03;6.17;;;16.50;48.30;;;;;;20344;6820;279672;-78
2023/10/09 01:50:19;;;;;;;10.47;6.43;;;16.60;48.70;;;;;;20396;6820;288340;-80
2023/10/09 01:52:37;;;;;;;14.90;6.40;;;16.90;48.20;;;;;;20416;6820;284124;-76
2023/10/09 01:55:15;;;;;;;15.52;6.53;;;17.20;47.70;;;;;;20371;6820;308069;-78
2023/10/09 01:57:30;;;;;;;14.60;5.93;;;17.40;47.30;;;;;;20645;6807;119357;-81
2023/10/09 01:59:54;;;;;;;19.08;6.62;;;17.20;47.30;;;;;;20434;6820;336351;-79
2023/10/09 02:02:25;;;;;;;14.97;5.73;;;17.20;47.30;;;;;;20645;6820;117574;-77
2023/10/09 02:04:50;;;;;;;14.70;5.87;;;17.10;47.50;;;;;;20727;6807;117444;-77
2023/10/09 02:07:16;;;;;;;14.18;6.25;;;16.80;47.80;;;;;;20532;6807;286866;-77
2023/10/09 02:09:46;;;;;;;14.23;5.30;;;16.90;48.20;;;;;;20759;6807;117627;-81
2023/10/09 02:12:08;;;;;;;16.87;6.40;;;16.80;48.00;;;;;;20742;6807;117259;-77
2023/10/09 02:14:32;;;;;;;13.03;5.50;;;16.60;48.10;;;;;;20767;6807;119075;-77
2023/10/09 02:19:48;;;;;;;12.70;6.23;;;16.60;48.60;;;;;;20801;6792;117577;-77
2023/10/09 02:22:12;;;;;;;17.20;5.57;;;16.60;48.40;;;;;;20797;6791;119767;-77
2023/10/09 02:24:57;;;;;;;16.97;5.97;;;16.40;48.60;;;;;;20798;6792;117587;-78
2023/10/09 02:30:09;;;;;;;11.90;6.43;;;16.50;48.90;;;;;;20578;6792;304014;-79
2023/10/09 02:32:28;;;;;;;18.43;6.63;;;16.90;48.00;;;;;;20555;6792;335005;-77
2023/10/09 02:34:53;;;;;;;15.38;5.50;;;17.20;47.50;;;;;;20784;6792;117547;-79
2023/10/09 02:37:23;;;;;;;14.82;6.45;;;17.10;47.60;;;;;;20570;6792;305974;-79
2023/10/09 02:39:47;;;;;;;13.43;6.17;;;17.00;47.50;;;;;;20773;6792;121709;-81
2023/10/09 02:44:52;;;;;;;12.87;5.33;;;17.00;47.60;;;;;;20803;6792;125369;-79
2023/10/09 02:47:20;;;;;;;12.45;6.10;;;16.80;47.50;;;;;;20480;6819;338903;-77
2023/10/09 02:49:43;;;;;;;16.67;7.10;;;16.90;47.50;;;;;;20579;6792;276995;-80
2023/10/09 02:52:10;;;;;;;10.37;5.23;;;17.20;47.10;;;;;;20703;6819;118870;-77
2023/10/09 02:54:41;;;;;;;19.83;6.68;;;17.00;47.10;;;;;;20580;6792;336000;-77
2023/10/09 02:57:07;;;;;;;18.90;6.23;;;17.00;47.10;;;;;;20766;6792;120137;-77
2023/10/09 02:59:31;;;;;;;19.47;6.07;;;16.90;47.20;;;;;;20806;6792;117641;-76
2023/10/09 03:01:59;;;;;;;15.57;6.47;;;16.60;47.50;;;;;;20508;6820;334159;-76
2023/10/09 03:04:23;;;;;;;16.55;6.53;;;16.80;47.70;;;;;;20588;6792;283573;-80
2023/10/09 03:06:51;;;;;;;11.93;5.10;;;17.00;47.30;;;;;;20819;6792;123152;-80
2023/10/09 03:09:17;;;;;;;12.67;5.93;;;16.70;47.50;;;;;;20779;6792;117930;-74
2023/10/09 03:11:46;;;;;;;14.10;6.40;;;16.70;47.50;;;;;;20491;6820;307058;-74
2023/10/09 03:14:12;;;;;;;15.63;6.60;;;16.80;47.50;;;;;;20569;6792;315262;-74
2023/10/09 03:16:38;;;;;;;15.47;6.20;;;17.10;47.00;;;;;;20566;6792;342629;-74
2023/10/09 03:19:03;;;;;;;14.77;6.70;;;17.30;46.60;;;;;;20564;6792;276864;-73
2023/10/09 03:21:28;;;;;;;15.55;6.30;;;17.50;46.10;;;;;;20484;6820;316516;-74
2023/10/09 03:23:55;;;;;;;12.23;5.68;;;17.70;46.10;;;;;;20804;6792;117245;-72
2023/10/09 03:26:20;;;;;;;11.17;5.70;;;17.50;46.20;;;;;;20697;6820;118191;-73
2023/10/09 03:28:48;;;;;;;13.67;6.13;;;17.10;46.60;;;;;;20578;6792;313215;-73
2023/10/09 03:31:14;;;;;;;13.07;5.17;;;17.10;46.90;;;;;;20683;6820;122216;-73
2023/10/09 03:33:40;;;;;;;14.47;5.87;;;17.10;46.80;;;;;;20790;6791;117303;-73
2023/10/09 03:36:09;;;;;;;15.63;5.83;;;16.70;47.30;;;;;;20718;6819;117307;-73
2023/10/09 03:38:34;;;;;;;16.33;5.63;;;16.60;47.20;;;;;;20784;6792;120234;-73
2023/10/09 03:41:18;;;;;;;17.80;6.57;;;16.50;47.50;;;;;;20577;6792;276997;-73
2023/10/09 03:43:54;;;;;;;15.27;6.27;;;16.70;47.40;;;;;;20910;6707;117765;-73
2023/10/09 03:46:33;;;;;;;11.80;5.70;;;16.70;47.20;;;;;;20901;6707;117438;-73
2023/10/09 03:49:10;;;;;;;14.77;5.43;;;16.30;47.60;;;;;;20880;6707;117748;-72
2023/10/09 03:51:41;;;;;;;17.37;6.53;;;16.30;47.60;;;;;;20509;6707;306985;-73
2023/10/09 03:54:20;;;;;;;9.73;5.47;;;16.60;47.90;;;;;;20875;6712;121719;-72
2023/10/09 03:56:54;;;;;;;15.32;6.65;;;16.50;47.60;;;;;;20711;6718;310522;-73
2023/10/09 03:59:30;;;;;;;11.90;5.77;;;16.80;47.80;;;;;;20865;6706;117101;-73
2023/10/09 04:02:04;;;;;;;11.30;5.90;;;16.70;47.60;;;;;;20797;6738;119597;-73
2023/10/09 04:04:45;;;;;;;14.47;5.60;;;16.50;47.70;;;;;;20782;6738;119419;-72
2023/10/09 04:07:18;;;;;;;14.00;6.43;;;16.40;48.00;;;;;;20554;6737;315928;-73
2023/10/09 04:10:26;;;;;;;14.48;6.50;;;16.60;48.00;;;;;;20521;6783;307535;-73
2023/10/09 04:12:33;;;;;;;13.03;5.67;;;17.00;47.40;;;;;;20677;6813;117569;-73
2023/10/09 04:15:14;;;;;;;16.27;6.75;;;16.90;47.10;;;;;;20485;6767;305623;-77
2023/10/09 04:17:43;;;;;;;9.07;5.07;;;17.00;46.80;;;;;;20751;6749;117437;-73
2023/10/09 04:23:05;;;;;;;14.87;6.15;;;17.00;46.50;;;;;;20275;6801;276858;-75
2023/10/09 04:25:50;;;;;;;12.50;5.77;;;17.20;46.30;;;;;;20762;6742;117292;-73
2023/10/09 04:28:22;;;;;;;15.20;5.97;;;17.10;46.20;;;;;;20764;6742;117280;-73
2023/10/09 04:30:58;;;;;;;17.43;5.77;;;16.80;46.60;;;;;;20637;6742;67504;-73
2023/10/09 04:33:42;;;;;;;16.70;6.47;;;16.60;47.00;;;;;;20571;6742;306686;-73
2023/10/09 04:44:22;;;;;;;14.17;5.13;;;16.50;47.60;;;;;;20618;6804;120191;-74
2023/10/09 04:47:34;;;;;;;;;;;;;;;;;;;;;
2023/10/09 04:50:06;;;;;;;11.03;4.43;;;16.20;47.10;;;;;;20640;6804;118800;-74
2023/10/09 04:55:18;;;;;;;15.10;6.23;;;16.00;47.70;;;;;;20374;6793;306255;-74
2023/10/09 04:58:08;;;;;;;14.07;5.83;;;16.20;47.50;;;;;;20511;6751;306856;-74
2023/10/09 05:00:46;;;;;;;15.33;5.10;;;16.70;47.10;;;;;;20533;6774;117640;-74
2023/10/09 05:03:11;;;;;;;20.95;6.22;;;16.70;46.90;;;;;;20598;6778;343965;-75
2023/10/09 05:05:58;;;;;;;12.83;5.00;;;16.80;46.50;;;;;;20794;6723;117977;-74
2023/10/09 05:08:32;;;;;;;12.40;5.67;;;16.80;46.40;;;;;;20795;6791;121262;-75
2023/10/09 05:11:15;;;;;;;12.15;5.30;;;16.50;46.60;;;;;;20377;6741;336919;-75
2023/10/09 05:13:57;;;;;;;12.83;5.07;;;16.70;46.90;;;;;;20770;6741;117268;-73
2023/10/09 05:16:33;;;;;;;15.57;8.80;;;16.70;46.70;;;;;;20746;6795;116955;-73
2023/10/09 05:19:06;;;;;;;16.00;9.03;;;16.50;47.00;;;;;;20708;6720;117626;-74
2023/10/09 05:24:18;;;;;;;15.43;5.50;;;16.60;46.80;;;;;;20760;6708;72287;-73
2023/10/09 05:26:53;;;;;;;14.55;5.95;;;16.70;46.80;;;;;;20668;6708;275144;-73
2023/10/09 05:29:47;;;;;;;14.83;5.63;;;16.90;46.60;;;;;;20518;6722;304466;-73
2023/10/09 05:32:26;;;;;;;12.37;4.67;;;17.20;46.20;;;;;;20814;6786;124977;-73
2023/10/09 05:35:07;;;;;;;13.00;5.10;;;16.80;46.50;;;;;;20809;6726;117015;-72
2023/10/09 05:37:43;;;;;;;11.45;5.45;;;16.80;47.10;;;;;;20624;6723;341888;-75
2023/10/09 05:42:57;;;;;;;11.43;5.53;;;16.90;46.70;;;;;;20463;6787;286994;-77
2023/10/09 05:51:19;;;;;;;10.23;5.00;;;17.20;46.10;;;;;;20435;6770;121743;-73
2023/10/09 06:04:54;;;;;;;11.90;4.63;;;17.30;45.90;;;;;;20931;6711;117047;-76
2023/10/09 06:07:49;;;;;;;14.93;5.13;;;17.10;46.30;;;;;;20831;6723;116986;-76
2023/10/09 06:10:17;;;;;;;12.60;5.10;;;16.70;46.50;;;;;;20785;6754;116975;-75
2023/10/09 06:15:31;;;;;;;13.07;5.85;;;17.00;46.70;;;;;;20626;6713;337162;-75
2023/10/09 06:17:59;;;;;;;8.57;4.83;;;17.40;46.20;;;;;;20914;6713;117523;-76
2023/10/09 06:23:57;;;;;;;13.77;5.17;;;17.50;45.90;;;;;;20843;6711;122544;-76
2023/10/09 06:26:23;;;;;;;14.48;5.97;;;17.40;46.00;;;;;;20480;6814;315511;-77
2023/10/09 06:28:49;;;;;;;12.50;5.33;;;17.60;46.20;;;;;;20690;6821;117524;-76
2023/10/09 06:31:57;;;;;;;10.87;4.90;;;17.50;46.00;;;;;;20624;6791;117634;-76
2023/10/09 06:34:15;;;;;;;12.53;4.87;;;17.40;46.20;;;;;;20760;6796;117637;-73
2023/10/09 06:36:52;;;;;;;12.40;5.10;;;17.20;46.40;;;;;;20776;6747;120214;-74
2023/10/09 06:45:20;;;;;;;12.80;6.00;;;17.00;47.00;;;;;;20453;6662;308323;-75
2023/10/09 06:50:25;;;;;;;11.73;5.20;;;17.40;46.80;;;;;;19967;6852;119584;-75
2023/10/09 06:55:50;;;;;;;14.48;5.82;;;17.60;46.90;;;;;;20529;6770;314660;-75
2023/10/09 06:58:28;;;;;;;12.90;5.50;;;18.00;46.10;;;;;;20623;6712;278048;-76
2023/10/09 07:01:28;;;;;;;11.53;5.50;;;18.30;45.60;;;;;;20398;6736;306507;-75
2023/10/09 07:04:18;;;;;;;8.77;4.80;;;18.60;45.10;;;;;;20778;6734;117710;-75
2023/10/09 07:09:19;;;;;;;12.50;4.57;;;18.30;45.30;;;;;;20729;6784;119219;-75
2023/10/09 07:17:44;;;;;;;13.70;4.80;;;18.80;44.00;;;;;;20166;6793;120425;-75
2023/10/09 07:20:38;;;;;;;13.90;4.97;;;18.90;44.00;;;;;;20717;6731;117098;-75
2023/10/09 07:22:56;;;;;;;11.70;4.80;;;18.70;44.30;;;;;;20459;6785;285011;-75
2023/10/09 07:28:18;;;;;;;12.20;4.80;;;19.00;43.70;;;;;;20614;6732;282188;-75
2023/10/09 07:30:57;;;;;;;14.13;4.63;;;19.20;43.10;;;;;;20710;6728;117280;-76
2023/10/09 07:36:34;;;;;;;15.20;4.87;;;19.40;41.90;;;;;;20795;6740;117115;-75
2023/10/09 07:39:14;;;;;;;13.33;4.20;;;19.40;42.80;;;;;;20787;6740;119145;-75
2023/10/09 07:41:56;;;;;;;10.73;4.13;;;19.20;43.20;;;;;;20624;6796;117247;-75
2023/10/09 07:44:36;;;;;;;12.77;5.65;;;19.10;43.70;;;;;;20541;6755;276692;-75
2023/10/09 07:47:45;;;;;;;13.10;5.93;;;19.30;46.40;;;;;;20536;6742;307519;-75
2023/10/09 07:49:59;;;;;;;13.80;4.97;;;19.70;46.20;;;;;;20731;6794;121734;-75
2023/10/09 07:52:32;;;;;;;17.73;5.73;;;19.80;45.10;;;;;;20675;6713;275406;-75
2023/10/09 07:55:25;;;;;;;13.65;5.30;;;19.80;45.10;;;;;;20616;6723;343624;-75
2023/10/09 07:57:51;;;;;;;12.00;4.80;;;20.10;44.50;;;;;;20832;6779;117543;-76
2023/10/09 08:00:36;;;;;;;14.75;5.25;;;20.10;44.20;;;;;;20544;6717;308022;-75
2023/10/09 08:03:23;;;;;;;12.40;4.67;;;20.10;44.20;;;;;;20767;6736;117085;-77
2023/10/09 08:05:47;;;;;;;10.10;5.00;;;20.00;44.10;;;;;;20673;6771;276671;-76
2023/10/09 08:14:07;;;;;;;13.93;5.00;;;19.90;43.80;;;;;;20600;6740;306111;-74
2023/10/09 08:16:41;;;;;;;14.27;5.07;;;20.10;42.60;;;;;;20604;6729;316864;-74
2023/10/09 08:19:53;;;;;;;13.30;4.97;;;20.40;42.00;;;;;;20578;6722;290206;-75
2023/10/09 08:22:37;;;;;;;10.03;4.73;;;20.70;41.70;;;;;;20691;6772;117111;-74
2023/10/09 08:24:40;;;;;;;16.43;4.33;;;20.60;41.90;;;;;;20787;6777;117414;-74
2023/10/09 08:35:49;;;;;;;12.82;4.68;;;20.70;42.90;;;;;;19503;6773;305287;-74
2023/10/09 08:38:26;;;;;;;12.70;4.53;;;20.90;42.10;;;;;;20656;6713;310065;-74
2023/10/09 08:41:18;;;;;;;15.80;5.07;;;21.60;40.90;;;;;;20472;6737;285789;-76
2023/10/09 08:43:57;;;;;;;14.98;4.90;;;21.60;40.90;;;;;;20592;6742;313536;-74
2023/10/09 08:46:29;;;;;;;13.93;4.57;;;21.90;40.60;;;;;;20846;6720;116945;-74
2023/10/09 08:49:08;;;;;;;12.03;4.30;;;21.80;41.20;;;;;;20779;6726;117254;-74
2023/10/09 08:51:42;;;;;;;13.00;4.60;;;21.80;41.20;;;;;;20431;6735;278572;-74
2023/10/09 08:54:17;;;;;;;16.00;5.18;;;21.90;40.50;;;;;;20662;6711;281166;-74
2023/10/09 08:56:54;;;;;;;11.30;4.47;;;22.20;39.90;;;;;;20658;6712;276449;-73
2023/10/09 08:59:28;;;;;;;13.57;4.17;;;22.50;39.60;;;;;;20839;6711;116921;-74
2023/10/09 09:02:04;;;;;;;12.30;4.43;;;22.50;39.90;;;;;;20673;6706;308244;-73
2023/10/09 09:04:45;;;;;;;12.03;3.70;;;22.50;39.10;;;;;;20886;6706;117355;-73
2023/10/09 09:07:24;;;;;;;12.57;4.97;;;22.50;39.60;;;;;;20662;6706;275809;-73
2023/10/09 09:13:03;;;;;;;9.87;3.60;;;22.40;40.10;;;;;;20865;6712;117266;-74
2023/10/09 09:15:40;;;;;;;13.30;4.87;;;22.40;40.10;;;;;;20645;6712;296834;-74
2023/10/09 09:18:17;;;;;;;12.07;4.20;;;22.60;40.40;;;;;;20864;6712;121391;-74
2023/10/09 09:20:53;;;;;;;13.53;4.07;;;22.50;40.70;;;;;;20788;6712;123732;-74
2023/10/09 09:23:26;;;;;;;13.60;3.97;;;22.50;40.60;;;;;;20836;6711;117320;-73
2023/10/09 09:26:10;;;;;;;14.57;4.60;;;22.40;40.80;;;;;;20630;6712;305550;-74
2023/10/09 09:28:38;;;;;;;18.60;5.00;;;22.70;40.70;;;;;;20649;6712;338291;-74
2023/10/09 09:31:13;;;;;;;16.53;4.53;;;23.10;40.60;;;;;;20723;6712;118309;-74
2023/10/09 09:33:52;;;;;;;15.33;4.60;;;23.10;40.40;;;;;;20670;6705;315002;-74
2023/10/09 09:36:23;;;;;;;12.87;4.43;;;23.40;40.30;;;;;;20893;6705;117073;-74
2023/10/09 09:39:01;;;;;;;12.77;4.03;;;23.40;40.20;;;;;;20876;6705;146451;-74
2023/10/09 09:41:36;;;;;;;16.33;4.17;;;23.30;40.40;;;;;;20686;6705;288700;-73
2023/10/09 09:44:17;;;;;;;18.77;4.57;;;23.50;39.60;;;;;;20678;6707;305478;-74
2023/10/09 09:46:48;;;;;;;15.73;4.97;;;23.40;39.50;;;;;;20748;6687;311930;-74
2023/10/09 09:49:23;;;;;;;14.23;4.30;;;23.80;38.80;;;;;;20728;6687;322289;-74
2023/10/09 09:52:06;;;;;;;14.50;4.70;;;24.20;38.00;;;;;;20710;6697;306117;-74
2023/10/09 09:54:38;;;;;;;11.97;4.20;;;24.40;37.30;;;;;;20932;6711;116864;-74
2023/10/09 09:57:22;;;;;;;11.90;3.93;;;24.50;37.60;;;;;;20873;6711;117055;-73
2023/10/09 09:59:55;;;;;;;13.43;4.00;;;24.30;37.80;;;;;;20825;6711;116958;-74
2023/10/09 10:02:33;;;;;;;15.68;4.25;;;24.20;38.00;;;;;;20651;6711;306397;-74
2023/10/09 10:05:11;;;;;;;14.33;4.23;;;24.30;38.10;;;;;;20891;6697;140457;-75
2023/10/09 10:07:43;;;;;;;12.25;4.78;;;24.40;38.30;;;;;;20646;6711;316190;-73
2023/10/09 10:10:47;;;;;;;13.30;4.97;;;24.60;38.10;;;;;;20804;6712;116889;-74
2023/10/09 10:13:21;;;;;;;13.40;4.67;;;24.80;38.50;;;;;;20659;6706;276258;-73
2023/10/09 10:16:00;;;;;;;8.87;4.20;;;25.10;37.90;;;;;;20830;6706;118318;-77
2023/10/09 10:18:39;;;;;;;12.07;4.63;;;25.40;38.20;;;;;;20682;6708;306470;-73
2023/10/09 10:21:16;;;;;;;15.93;4.83;;;25.40;38.20;;;;;;20516;6748;314357;-74
2023/10/09 10:23:51;;;;;;;16.90;4.70;;;25.90;37.60;;;;;;20945;6687;117000;-74
2023/10/09 10:26:27;;;;;;;13.83;4.70;;;26.00;37.10;;;;;;20756;6687;275994;-75
2023/10/09 10:29:23;;;;;;;14.63;4.90;;;26.20;36.40;;;;;;20779;6687;307384;-74
2023/10/09 10:53:47;;;;;;;13.75;5.20;;;27.70;32.70;;;;;;21073;6544;278860;-74
2023/10/09 10:56:45;;;;;;;19.90;5.00;;;27.70;32.10;;;;;;20371;6847;310761;-76
2023/10/09 10:58:24;;;;;;;17.90;5.47;;;27.80;32.10;;;;;;20097;6832;279699;-75
2023/10/09 11:03:35;;;;;;;17.80;5.50;;;27.80;32.40;;;;;;20320;6874;310583;-78
2023/10/09 11:06:12;;;;;;;21.08;5.28;;;27.80;32.30;;;;;;20294;6874;309924;-77
2023/10/09 11:08:32;;;;;;;16.27;5.73;;;27.70;32.50;;;;;;20508;6873;118225;-77
2023/10/09 11:11:15;;;;;;;19.70;5.30;;;27.40;33.40;;;;;;20547;6873;117637;-77
2023/10/09 11:13:52;;;;;;;23.17;5.17;;;27.00;33.10;;;;;;20316;6874;318411;-76
2023/10/09 11:16:14;;;;;;;17.53;4.87;;;26.80;32.30;;;;;;20498;6874;118164;-76
2023/10/09 11:18:45;;;;;;;14.90;4.93;;;26.60;32.70;;;;;;20514;6889;118089;-76
2023/10/09 11:28:51;;;;;;;19.83;5.00;;;25.50;34.60;;;;;;20497;6889;118649;-75
2023/10/09 11:31:16;;;;;;;16.53;4.70;;;25.40;35.00;;;;;;20467;6889;122664;-75
2023/10/09 11:33:53;;;;;;;17.27;5.67;;;25.20;35.20;;;;;;20495;6889;122198;-75
2023/10/09 11:36:32;;;;;;;10.97;4.47;;;25.20;35.40;;;;;;20482;6889;121604;-74
2023/10/09 11:39:13;;;;;;;17.60;4.90;;;25.10;35.60;;;;;;20405;6917;118338;-75
2023/10/09 11:41:24;;;;;;;18.20;5.65;;;25.10;35.90;;;;;;20150;6910;328975;-77
2023/10/09 11:43:51;;;;;;;23.80;4.97;;;25.40;35.80;;;;;;20484;6893;118045;-78
2023/10/09 11:46:36;;;;;;;22.23;5.22;;;25.60;35.70;;;;;;20223;6908;310810;-77
2023/10/09 11:49:15;;;;;;;21.43;5.50;;;25.80;36.50;;;;;;20213;6893;305957;-78
2023/10/09 11:51:18;;;;;;;18.25;5.72;;;26.10;35.80;;;;;;20131;6908;317888;-77
2023/10/09 11:53:45;;;;;;;17.10;5.07;;;26.40;34.90;;;;;;20477;6893;117725;-77
2023/10/09 11:56:14;;;;;;;18.98;5.30;;;26.30;34.70;;;;;;20221;6906;310832;-78
2023/10/09 11:58:39;;;;;;;24.47;5.30;;;26.30;34.30;;;;;;20424;6906;117780;-78
2023/10/09 12:01:04;;;;;;;24.17;5.60;;;26.20;34.40;;;;;;20495;6882;124074;-78
2023/10/09 12:03:30;;;;;;;18.67;5.53;;;26.00;34.80;;;;;;20244;6892;293650;-78
2023/10/09 12:05:56;;;;;;;15.33;4.77;;;26.00;35.10;;;;;;20403;6904;117802;-77
2023/10/09 12:08:22;;;;;;;17.27;4.87;;;26.00;35.10;;;;;;20400;6907;117809;-78
2023/10/09 12:10:48;;;;;;;20.27;5.00;;;25.70;35.30;;;;;;20206;6902;310509;-78
2023/10/09 12:13:15;;;;;;;12.67;4.43;;;25.80;35.00;;;;;;20393;6902;118346;-78
2023/10/09 12:15:38;;;;;;;26.20;5.17;;;25.70;35.00;;;;;;20428;6903;123502;-76
2023/10/09 12:18:03;;;;;;;19.90;5.20;;;25.50;35.40;;;;;;20253;6888;292880;-76
2023/10/09 12:20:33;;;;;;;13.23;4.83;;;25.50;35.00;;;;;;20435;6905;118329;-77
2023/10/09 12:22:58;;;;;;;19.17;5.70;;;25.40;34.90;;;;;;20273;6882;310600;-77
2023/10/09 12:25:23;;;;;;;20.53;5.57;;;25.50;34.70;;;;;;20516;6882;118383;-77
2023/10/09 12:27:49;;;;;;;20.40;5.33;;;25.40;34.80;;;;;;20487;6887;118239;-77
2023/10/09 12:30:15;;;;;;;14.40;4.30;;;25.00;35.80;;;;;;20519;6879;119367;-77
2023/10/09 12:32:41;;;;;;;21.37;5.03;;;25.00;35.80;;;;;;20526;6879;118177;-77
2023/10/09 12:35:17;;;;;;;20.85;5.18;;;24.90;36.30;;;;;;20310;6879;311402;-77
2023/10/09 12:37:32;;;;;;;15.50;4.73;;;25.10;36.20;;;;;;20494;6879;117654;-77
2023/10/09 12:39:58;;;;;;;14.35;4.90;;;25.20;35.90;;;;;;20290;6879;339297;-77
2023/10/09 12:42:23;;;;;;;21.33;5.43;;;25.40;35.60;;;;;;20524;6879;117622;-77
2023/10/09 12:44:51;;;;;;;24.02;6.07;;;25.60;36.40;;;;;;20323;6879;310352;-77
2023/10/09 12:47:18;;;;;;;21.03;5.03;;;25.60;35.70;;;;;;20514;6879;119425;-76
2023/10/09 12:49:41;;;;;;;23.23;5.13;;;25.70;35.60;;;;;;20531;6879;117924;-75
2023/10/09 12:52:15;;;;;;;14.02;5.05;;;25.60;35.80;;;;;;20531;6879;118393;-74
2023/10/09 12:54:33;;;;;;;20.27;5.90;;;25.40;36.70;;;;;;20470;6879;117834;-74
2023/10/09 12:56:59;;;;;;;22.62;5.75;;;25.40;36.70;;;;;;20279;6879;346769;-75
2023/10/09 12:59:24;;;;;;;21.03;5.27;;;25.60;36.90;;;;;;20518;6879;121927;-74
2023/10/09 13:01:57;;;;;;;22.90;5.20;;;25.80;36.50;;;;;;20524;6879;117727;-74
2023/10/09 13:04:22;;;;;;;20.63;5.73;;;25.70;36.20;;;;;;20292;6879;308898;-75
2023/10/09 13:06:45;;;;;;;22.20;5.80;;;25.90;36.10;;;;;;20306;6879;318065;-76
2023/10/09 13:09:11;;;;;;;15.03;4.87;;;26.30;35.80;;;;;;20507;6879;129549;-76
2023/10/09 13:11:40;;;;;;;20.13;5.90;;;26.40;35.60;;;;;;20494;6887;118677;-76
2023/10/09 13:14:11;;;;;;;19.30;5.57;;;26.30;35.40;;;;;;20306;6879;319703;-76
2023/10/09 13:16:29;;;;;;;15.63;4.77;;;26.40;35.20;;;;;;20501;6878;117491;-77
2023/10/09 13:18:54;;;;;;;24.37;6.10;;;26.50;35.10;;;;;;20311;6878;309264;-75
2023/10/09 13:21:20;;;;;;;22.13;5.60;;;26.60;34.50;;;;;;20309;6878;279429;-75
2023/10/09 13:23:54;;;;;;;20.53;5.10;;;26.80;33.40;;;;;;20486;6878;118289;-75
2023/10/09 13:26:18;;;;;;;16.10;5.03;;;26.80;33.60;;;;;;20515;6878;118413;-75
2023/10/09 13:28:45;;;;;;;21.62;5.62;;;26.60;33.60;;;;;;20314;6878;318913;-75
2023/10/09 13:31:13;;;;;;;21.80;5.50;;;26.60;33.60;;;;;;20280;6878;346692;-76
2023/10/09 13:33:36;;;;;;;19.52;5.55;;;26.80;33.90;;;;;;20304;6878;301699;-75
2023/10/09 13:36:02;;;;;;;18.30;4.67;;;27.00;33.10;;;;;;20499;6887;121791;-75
2023/10/09 13:38:27;;;;;;;19.97;5.60;;;27.00;33.40;;;;;;20338;6879;280115;-75
2023/10/09 13:41:01;;;;;;;19.95;5.50;;;27.00;33.50;;;;;;20332;6879;310865;-75
2023/10/09 13:43:25;;;;;;;24.73;5.87;;;27.20;33.40;;;;;;20263;6872;310037;-75
2023/10/09 13:45:50;;;;;;;23.90;5.47;;;27.40;32.20;;;;;;20519;6872;117726;-75
2023/10/09 13:48:17;;;;;;;20.73;5.57;;;27.10;32.50;;;;;;20492;6887;117509;-76
2023/10/09 13:50:42;;;;;;;20.30;5.50;;;27.10;32.50;;;;;;20250;6894;337076;-75
2023/10/09 13:53:10;;;;;;;20.40;6.00;;;27.00;32.40;;;;;;20247;6894;280683;-77
2023/10/09 13:55:43;;;;;;;21.03;5.63;;;27.20;32.90;;;;;;20252;6894;339129;-78
2023/10/09 13:57:58;;;;;;;23.15;6.07;;;27.40;32.90;;;;;;20452;6894;117746;-78
2023/10/09 14:00:34;;;;;;;14.07;4.87;;;27.30;32.50;;;;;;20501;6887;117930;-76
2023/10/09 14:03:01;;;;;;;13.20;5.20;;;27.10;32.50;;;;;;20449;6887;117805;-77
2023/10/09 14:05:24;;;;;;;21.35;5.65;;;26.80;32.80;;;;;;20192;6887;344253;-78
2023/10/09 14:07:51;;;;;;;18.13;5.07;;;26.90;33.00;;;;;;20448;6887;117457;-77
2023/10/09 14:10:25;;;;;;;23.73;5.57;;;26.90;33.00;;;;;;20257;6890;311098;-77
2023/10/09 14:12:44;;;;;;;20.83;6.07;;;27.00;32.90;;;;;;20251;6887;309372;-77
2023/10/09 14:15:17;;;;;;;22.92;6.07;;;27.30;32.70;;;;;;20202;6908;338691;-77
2023/10/09 14:17:42;;;;;;;17.23;5.37;;;27.40;31.40;;;;;;20434;6902;118380;-76
2023/10/09 14:22:52;;;;;;;18.67;5.90;;;27.20;31.80;;;;;;20251;6898;308969;-77
2023/10/09 14:25:20;;;;;;;12.13;5.10;;;27.20;31.80;;;;;;20436;6898;118013;-77
2023/10/09 14:27:42;;;;;;;22.90;6.30;;;27.20;32.10;;;;;;20244;6896;280453;-79
2023/10/09 14:30:18;;;;;;;11.13;5.17;;;27.30;32.10;;;;;;20469;6897;118544;-79
2023/10/09 14:32:43;;;;;;;16.53;4.83;;;27.30;31.20;;;;;;20404;6897;118143;-78
2023/10/09 14:35:12;;;;;;;20.43;6.27;;;27.10;30.90;;;;;;20160;6897;319010;-78
2023/10/09 14:37:31;;;;;;;18.40;5.68;;;27.20;29.50;;;;;;20222;6897;309876;-82
2023/10/09 14:39:55;;;;;;;12.03;5.73;;;27.50;28.40;;;;;;20459;6897;117607;-79
2023/10/09 14:42:24;;;;;;;13.13;4.72;;;27.40;28.60;;;;;;20439;6896;118711;-78
2023/10/09 14:44:49;;;;;;;17.67;5.93;;;27.20;28.80;;;;;;20435;6896;121337;-78
2023/10/09 14:47:18;;;;;;;16.83;6.57;;;27.10;28.70;;;;;;20217;6896;348274;-78
2023/10/09 14:49:44;;;;;;;15.87;6.10;;;27.30;29.00;;;;;;20444;6896;117765;-78
2023/10/09 14:52:09;;;;;;;18.90;6.43;;;27.20;28.40;;;;;;20223;6896;309762;-77
2023/10/09 14:54:35;;;;;;;22.23;6.57;;;27.40;27.20;;;;;;20240;6896;310671;-78
2023/10/09 14:57:00;;;;;;;12.47;5.03;;;27.50;27.70;;;;;;20461;6896;117956;-78
2023/10/09 14:59:26;;;;;;;15.23;4.80;;;27.50;28.10;;;;;;20440;6912;117969;-77
2023/10/09 15:01:53;;;;;;;21.27;6.57;;;27.30;28.50;;;;;;20272;6897;310282;-77
2023/10/09 15:04:17;;;;;;;21.43;6.13;;;27.30;29.00;;;;;;20283;6898;308547;-77
2023/10/09 15:06:42;;;;;;;17.30;6.20;;;27.50;29.00;;;;;;20276;6897;280549;-77
2023/10/09 15:09:09;;;;;;;19.60;6.03;;;27.60;29.40;;;;;;20190;6913;309498;-77
2023/10/09 15:11:34;;;;;;;20.47;6.03;;;27.70;29.10;;;;;;20257;6897;310883;-77